Time;durP1;ratioP1;P1;durP2;ratioP2;P2;SDS_P1;SDS_P2;PMS_P1;PMS_P2;Temp;Humidity;BMP_temperature;BMP_pressure;BME280_temperature;BME280_humidity;BME280_pressure;Samples;Min_cycle;Max_cycle;Signal;HPM_P1;HPM_P2
2024/02/27 00:01:51;;;;;;;26.37;17.50;;;6.60;99.90;;;;;;5097155;28;20450;-82
2024/02/27 00:04:17;;;;;;;21.37;16.17;;;6.60;99.90;;;;;;5095940;28;20845;-82
2024/02/27 00:06:49;;;;;;;29.00;16.93;;;6.60;99.90;;;;;;5096557;28;20465;-82
2024/02/27 00:09:18;;;;;;;22.50;15.90;;;6.60;99.90;;;;;;5096787;28;20449;-82
2024/02/27 00:11:45;;;;;;;26.70;17.60;;;6.60;99.90;;;;;;5100488;28;20500;-81
2024/02/27 00:14:12;;;;;;;24.27;16.40;;;6.50;99.90;;;;;;5102456;28;20497;-82
2024/02/27 00:16:39;;;;;;;23.70;16.13;;;6.60;99.90;;;;;;5101829;28;21068;-81
2024/02/27 00:19:06;;;;;;;21.57;16.50;;;6.70;99.90;;;;;;5102819;28;20537;-81
2024/02/27 00:21:33;;;;;;;19.77;15.03;;;6.70;99.90;;;;;;5102332;28;20456;-82
2024/02/27 00:24:01;;;;;;;23.83;16.47;;;6.70;99.90;;;;;;5102196;28;21015;-82
2024/02/27 00:26:30;;;;;;;22.43;15.27;;;6.60;99.90;;;;;;5101221;28;20519;-82
2024/02/27 00:28:57;;;;;;;24.07;16.50;;;6.60;99.90;;;;;;5102311;28;20472;-82
2024/02/27 00:31:24;;;;;;;25.27;17.03;;;6.70;99.90;;;;;;5101681;28;20508;-81
2024/02/27 00:33:51;;;;;;;21.10;15.43;;;6.60;99.90;;;;;;5101857;28;20458;-82
2024/02/27 00:36:18;;;;;;;23.90;17.73;;;6.70;99.90;;;;;;5092819;28;20464;-82
2024/02/27 00:38:45;;;;;;;24.17;17.57;;;6.70;99.90;;;;;;5101996;28;20466;-83
2024/02/27 00:41:13;;;;;;;23.60;16.90;;;6.60;99.90;;;;;;5101716;28;20472;-82
2024/02/27 00:43:40;;;;;;;21.50;14.87;;;6.50;99.90;;;;;;5093094;28;20987;-82
2024/02/27 00:46:07;;;;;;;25.73;17.20;;;6.50;99.90;;;;;;5100865;28;20461;-82
2024/02/27 00:48:34;;;;;;;25.07;16.20;;;6.50;99.90;;;;;;5093619;28;20451;-83
2024/02/27 00:51:01;;;;;;;21.77;15.10;;;6.50;99.90;;;;;;5094362;28;20514;-82
2024/02/27 00:53:28;;;;;;;24.10;16.80;;;6.50;99.90;;;;;;5094364;28;20474;-84
2024/02/27 00:55:56;;;;;;;24.40;16.77;;;6.50;99.90;;;;;;5100738;28;20530;-83
2024/02/27 00:58:25;;;;;;;23.97;15.83;;;6.40;99.90;;;;;;5102347;28;20496;-83
2024/02/27 01:00:51;;;;;;;26.10;16.33;;;6.40;99.90;;;;;;5102420;28;20541;-83
2024/02/27 01:03:18;;;;;;;20.33;15.40;;;6.30;99.90;;;;;;5102449;28;20479;-84
2024/02/27 01:05:45;;;;;;;24.00;16.03;;;6.40;99.90;;;;;;5093579;28;20462;-84
2024/02/27 01:08:12;;;;;;;25.13;16.77;;;6.40;99.90;;;;;;5102221;28;20454;-82
2024/02/27 01:10:41;;;;;;;23.67;15.50;;;6.40;99.90;;;;;;5093666;28;20937;-82
2024/02/27 01:13:08;;;;;;;23.47;14.83;;;6.40;99.90;;;;;;5099183;28;20471;-82
2024/02/27 01:15:36;;;;;;;24.50;16.67;;;6.40;99.90;;;;;;5102117;28;20537;-83
2024/02/27 01:18:03;;;;;;;26.17;16.87;;;6.40;99.90;;;;;;5100058;28;20559;-83
2024/02/27 01:20:30;;;;;;;26.30;17.10;;;6.40;99.90;;;;;;5100971;28;20493;-83
2024/02/27 01:22:58;;;;;;;21.93;15.13;;;6.40;99.90;;;;;;5100642;28;20485;-83
2024/02/27 01:25:25;;;;;;;23.00;15.40;;;6.40;99.90;;;;;;5100731;28;20470;-83
2024/02/27 01:27:52;;;;;;;26.47;16.63;;;6.40;99.90;;;;;;5102147;28;20442;-83
2024/02/27 01:30:19;;;;;;;21.87;14.83;;;6.40;99.90;;;;;;5103580;28;20498;-84
2024/02/27 01:32:50;;;;;;;26.30;16.70;;;6.50;99.90;;;;;;5104050;28;20539;-83
2024/02/27 01:35:18;;;;;;;20.93;14.57;;;6.40;99.90;;;;;;5100073;28;20452;-83
2024/02/27 01:37:46;;;;;;;21.27;14.80;;;6.40;99.90;;;;;;5097474;28;20487;-84
2024/02/27 01:40:13;;;;;;;22.10;13.90;;;6.40;99.90;;;;;;5107308;28;20463;-81
2024/02/27 01:42:43;;;;;;;27.43;17.50;;;6.40;99.90;;;;;;5105544;28;20553;-82
2024/02/27 01:45:18;;;;;;;24.40;17.20;;;6.40;99.90;;;;;;5111150;28;20458;-82
2024/02/27 01:47:47;;;;;;;28.20;17.33;;;6.40;99.90;;;;;;5093334;28;20442;-82
2024/02/27 01:50:17;;;;;;;24.40;16.63;;;6.20;99.90;;;;;;5100642;28;20499;-82
2024/02/27 01:52:45;;;;;;;23.60;16.40;;;6.20;99.90;;;;;;5098402;28;20478;-82
2024/02/27 01:55:15;;;;;;;23.47;16.43;;;6.30;99.90;;;;;;5096980;28;20450;-83
2024/02/27 01:57:42;;;;;;;22.60;15.30;;;6.30;99.90;;;;;;5099692;28;20489;-83
2024/02/27 02:00:11;;;;;;;25.77;17.30;;;6.30;99.90;;;;;;5091428;28;20832;-82
2024/02/27 02:02:38;;;;;;;24.43;15.60;;;6.30;99.90;;;;;;5091017;28;20973;-84
2024/02/27 02:05:07;;;;;;;21.83;14.70;;;6.30;99.90;;;;;;5088689;28;20465;-82
2024/02/27 02:07:35;;;;;;;24.33;15.80;;;6.40;99.90;;;;;;5097742;28;20483;-83
2024/02/27 02:10:03;;;;;;;24.00;15.17;;;6.40;99.90;;;;;;5100061;28;20449;-84
2024/02/27 02:12:30;;;;;;;23.40;15.97;;;6.40;99.90;;;;;;5099578;28;20566;-82
2024/02/27 02:15:01;;;;;;;22.63;15.90;;;6.40;99.90;;;;;;5095474;28;20533;-83
2024/02/27 02:17:28;;;;;;;24.30;16.60;;;6.30;99.90;;;;;;5098455;28;20508;-82
2024/02/27 02:19:54;;;;;;;23.37;16.43;;;6.30;99.90;;;;;;5099085;28;20454;-82
2024/02/27 02:22:22;;;;;;;26.97;17.33;;;6.20;99.90;;;;;;5098758;28;20968;-83
2024/02/27 02:24:50;;;;;;;24.07;15.33;;;6.20;99.90;;;;;;5094473;28;20457;-82
2024/02/27 02:27:19;;;;;;;24.67;15.47;;;6.20;99.90;;;;;;5089496;28;21107;-82
2024/02/27 02:29:46;;;;;;;21.80;16.10;;;6.20;99.90;;;;;;5095153;28;20454;-84
2024/02/27 02:32:13;;;;;;;21.93;14.27;;;6.20;99.90;;;;;;5090285;28;20546;-83
2024/02/27 02:34:40;;;;;;;23.00;15.47;;;6.20;99.90;;;;;;5082881;28;20442;-81
2024/02/27 02:37:08;;;;;;;26.57;16.83;;;6.20;99.90;;;;;;5091785;28;20519;-81
2024/02/27 02:39:36;;;;;;;24.63;16.50;;;6.20;99.90;;;;;;5090566;28;20491;-83
2024/02/27 02:42:03;;;;;;;26.73;16.80;;;6.10;99.90;;;;;;5090229;28;20470;-83
2024/02/27 02:44:30;;;;;;;21.73;15.10;;;6.00;99.90;;;;;;5087921;28;20538;-82
2024/02/27 02:46:57;;;;;;;22.23;14.80;;;6.10;99.90;;;;;;5084941;28;20455;-83
2024/02/27 02:49:24;;;;;;;23.13;14.83;;;6.10;99.90;;;;;;5086721;28;20460;-82
2024/02/27 02:51:50;;;;;;;25.53;15.53;;;6.10;99.90;;;;;;5098632;28;20561;-82
2024/02/27 02:54:17;;;;;;;24.57;15.97;;;6.10;99.90;;;;;;5098708;28;20482;-82
2024/02/27 02:57:04;;;;;;;24.00;16.60;;;6.00;99.90;;;;;;5094056;28;20462;-81
2024/02/27 02:59:31;;;;;;;23.13;16.53;;;6.00;99.90;;;;;;5078459;28;20970;-82
2024/02/27 03:01:58;;;;;;;25.80;16.53;;;6.00;99.90;;;;;;5093690;28;20840;-82
2024/02/27 03:04:25;;;;;;;24.90;17.47;;;6.00;99.90;;;;;;5097130;28;20480;-83
2024/02/27 03:06:53;;;;;;;24.67;15.47;;;5.90;99.90;;;;;;5097747;28;20508;-82
2024/02/27 03:09:20;;;;;;;23.43;15.53;;;6.00;99.90;;;;;;5090433;28;20481;-81
2024/02/27 03:11:49;;;;;;;22.10;15.97;;;5.90;99.90;;;;;;5097683;28;20461;-82
2024/02/27 03:14:17;;;;;;;27.13;15.07;;;6.00;99.90;;;;;;5097974;28;20485;-81
2024/02/27 03:16:45;;;;;;;26.27;15.70;;;6.00;99.90;;;;;;5086139;28;20499;-83
2024/02/27 03:19:12;;;;;;;24.87;16.43;;;5.90;99.90;;;;;;5086688;28;20495;-83
2024/02/27 03:21:39;;;;;;;22.53;14.53;;;5.80;99.90;;;;;;5098586;28;20472;-83
2024/02/27 03:24:08;;;;;;;22.23;14.47;;;5.90;99.90;;;;;;5090405;28;20561;-82
2024/02/27 03:26:36;;;;;;;25.57;16.97;;;5.90;99.90;;;;;;5095322;28;20943;-83
2024/02/27 03:29:04;;;;;;;23.67;15.20;;;5.90;99.90;;;;;;5078165;28;20495;-83
2024/02/27 03:31:31;;;;;;;21.40;13.83;;;6.10;99.90;;;;;;5088897;28;20529;-83
2024/02/27 03:33:58;;;;;;;24.23;16.53;;;6.10;99.90;;;;;;5093988;28;20472;-84
2024/02/27 03:36:25;;;;;;;27.87;16.63;;;6.00;99.90;;;;;;5094759;28;20457;-85
2024/02/27 03:38:52;;;;;;;25.13;16.60;;;5.90;99.90;;;;;;5089632;28;20499;-83
2024/02/27 03:41:19;;;;;;;24.30;15.40;;;5.90;99.90;;;;;;5092471;28;20456;-83
2024/02/27 03:43:46;;;;;;;24.00;14.57;;;5.90;99.90;;;;;;5095082;28;20513;-83
2024/02/27 03:46:15;;;;;;;25.30;16.80;;;5.90;99.90;;;;;;5089483;28;20457;-85
2024/02/27 03:48:41;;;;;;;30.57;18.20;;;5.90;99.90;;;;;;5091843;28;20445;-84
2024/02/27 03:51:08;;;;;;;26.43;16.47;;;5.80;99.90;;;;;;5091655;28;20450;-84
2024/02/27 03:53:35;;;;;;;26.33;16.60;;;5.70;99.90;;;;;;5098262;28;20478;-83
2024/02/27 03:56:04;;;;;;;25.17;17.37;;;5.70;99.90;;;;;;5089918;28;20457;-84
2024/02/27 03:58:30;;;;;;;25.10;16.10;;;5.70;99.90;;;;;;5098944;28;20486;-84
2024/02/27 04:00:57;;;;;;;26.20;17.63;;;5.70;99.90;;;;;;5093129;28;20556;-84
2024/02/27 04:03:25;;;;;;;25.13;16.80;;;5.80;99.90;;;;;;5095711;28;20491;-85
2024/02/27 04:05:52;;;;;;;22.90;15.70;;;5.70;99.90;;;;;;5084696;28;20841;-83
2024/02/27 04:08:19;;;;;;;25.60;17.40;;;5.60;99.90;;;;;;5100202;28;20457;-83
2024/02/27 04:10:46;;;;;;;23.03;16.07;;;5.60;99.90;;;;;;5100349;28;20828;-84
2024/02/27 04:13:13;;;;;;;24.70;16.70;;;5.60;99.90;;;;;;5098437;28;20499;-84
2024/02/27 04:15:41;;;;;;;24.87;16.60;;;5.70;99.90;;;;;;5087192;28;20522;-83
2024/02/27 04:18:08;;;;;;;25.90;16.60;;;5.70;99.90;;;;;;5094381;28;20576;-84
2024/02/27 04:20:36;;;;;;;24.23;15.40;;;5.70;99.90;;;;;;5099836;28;20468;-83
2024/02/27 04:23:03;;;;;;;26.80;18.20;;;5.80;99.90;;;;;;5099426;28;20485;-83
2024/02/27 04:25:31;;;;;;;26.27;15.50;;;5.80;99.90;;;;;;5092297;28;20545;-82
2024/02/27 04:27:58;;;;;;;25.50;16.47;;;5.80;99.90;;;;;;5094214;28;20542;-82
2024/02/27 04:30:25;;;;;;;22.33;14.80;;;5.90;99.90;;;;;;5098551;28;20459;-84
2024/02/27 04:32:52;;;;;;;26.23;16.80;;;5.90;99.90;;;;;;5100465;28;20559;-85
2024/02/27 04:35:18;;;;;;;26.60;17.40;;;5.90;99.90;;;;;;5093300;28;20548;-83
2024/02/27 04:37:47;;;;;;;25.03;15.90;;;5.90;99.90;;;;;;5099414;28;20471;-84
2024/02/27 04:40:13;;;;;;;21.70;15.30;;;5.90;99.90;;;;;;5091193;28;20457;-83
2024/02/27 04:42:41;;;;;;;21.60;14.90;;;5.90;99.90;;;;;;5085771;28;20471;-84
2024/02/27 04:45:08;;;;;;;26.20;15.70;;;6.00;99.90;;;;;;5087500;28;20462;-84
2024/02/27 04:47:35;;;;;;;23.63;15.97;;;5.90;99.90;;;;;;5089986;28;20472;-85
2024/02/27 04:50:02;;;;;;;25.60;15.97;;;5.90;99.90;;;;;;5084174;28;20931;-85
2024/02/27 04:52:29;;;;;;;27.60;17.07;;;5.90;99.90;;;;;;5089382;28;21077;-85
2024/02/27 04:54:57;;;;;;;28.37;16.80;;;5.90;99.90;;;;;;5091184;28;20463;-84
2024/02/27 04:57:24;;;;;;;22.27;13.80;;;5.90;99.90;;;;;;5097169;28;20452;-85
2024/02/27 04:59:51;;;;;;;24.87;15.90;;;5.90;99.90;;;;;;5098878;28;20495;-83
2024/02/27 05:02:20;;;;;;;23.47;15.00;;;6.00;99.90;;;;;;5081967;28;20458;-85
2024/02/27 05:04:47;;;;;;;23.50;15.20;;;6.10;99.90;;;;;;5093418;28;20533;-84
2024/02/27 05:07:14;;;;;;;21.47;15.60;;;5.90;99.90;;;;;;5100016;28;21192;-84
2024/02/27 05:09:40;;;;;;;25.03;15.27;;;5.90;99.90;;;;;;5092535;28;20444;-83
2024/02/27 05:12:09;;;;;;;23.00;14.13;;;5.90;99.90;;;;;;5092214;28;20523;-84
2024/02/27 05:14:35;;;;;;;18.80;14.03;;;5.90;99.90;;;;;;5099061;28;20454;-85
2024/02/27 05:17:02;;;;;;;23.63;15.10;;;6.00;99.90;;;;;;5101381;28;20457;-86
2024/02/27 05:19:29;;;;;;;25.67;15.37;;;5.90;99.90;;;;;;5095394;28;20548;-83
2024/02/27 05:21:57;;;;;;;20.93;15.10;;;5.90;99.90;;;;;;5107615;28;20529;-83
2024/02/27 05:24:24;;;;;;;26.27;16.23;;;6.00;99.90;;;;;;5100535;28;20504;-84
2024/02/27 05:26:51;;;;;;;23.50;15.63;;;6.00;99.90;;;;;;5087413;28;20461;-83
2024/02/27 05:29:19;;;;;;;23.27;16.17;;;6.00;99.90;;;;;;5088427;28;20452;-83
2024/02/27 05:31:46;;;;;;;20.90;13.93;;;6.00;99.90;;;;;;5088243;28;20529;-81
2024/02/27 05:34:13;;;;;;;21.23;13.47;;;6.00;99.90;;;;;;5089724;28;20881;-84
2024/02/27 05:36:40;;;;;;;26.03;15.50;;;6.10;99.90;;;;;;5048043;28;1101442;-82
2024/02/27 05:39:08;;;;;;;28.10;16.43;;;6.10;99.90;;;;;;5096473;28;20484;-83
2024/02/27 05:41:35;;;;;;;27.57;16.87;;;6.10;99.90;;;;;;5096170;28;20693;-81
2024/02/27 05:44:03;;;;;;;30.03;17.47;;;6.00;99.90;;;;;;5096753;28;20486;-83
2024/02/27 05:46:31;;;;;;;23.03;15.30;;;6.00;99.90;;;;;;5096100;28;20909;-83
2024/02/27 05:48:59;;;;;;;31.20;18.13;;;6.10;99.90;;;;;;5096580;28;20458;-82
2024/02/27 05:51:26;;;;;;;25.50;16.20;;;6.00;99.90;;;;;;5096713;28;20482;-84
2024/02/27 05:53:52;;;;;;;24.73;15.90;;;6.00;99.90;;;;;;5096519;28;20480;-83
2024/02/27 05:56:21;;;;;;;28.03;17.40;;;6.00;99.90;;;;;;5095792;28;20541;-81
2024/02/27 05:58:48;;;;;;;28.30;18.43;;;5.90;99.90;;;;;;5095567;28;20489;-84
2024/02/27 06:01:15;;;;;;;23.83;14.47;;;5.90;99.90;;;;;;5095901;28;20462;-82
2024/02/27 06:03:43;;;;;;;27.63;15.50;;;6.00;99.90;;;;;;5095465;28;20508;-82
2024/02/27 06:06:12;;;;;;;24.07;15.30;;;5.90;99.90;;;;;;5096114;28;20450;-81
2024/02/27 06:08:39;;;;;;;25.60;16.20;;;5.80;99.90;;;;;;5096049;28;20458;-81
2024/02/27 06:11:06;;;;;;;27.23;17.00;;;5.80;99.90;;;;;;5088537;28;20502;-83
2024/02/27 06:13:33;;;;;;;31.30;17.13;;;5.80;99.90;;;;;;5095030;28;20570;-81
2024/02/27 06:16:00;;;;;;;24.73;16.13;;;5.80;99.90;;;;;;5088812;28;20458;-82
2024/02/27 06:18:27;;;;;;;29.20;17.30;;;5.90;99.90;;;;;;5092947;28;20497;-81
2024/02/27 06:23:40;;;;;;;27.07;16.80;;;5.70;99.90;;;;;;5096060;28;20519;-82
2024/02/27 06:26:08;;;;;;;26.87;17.40;;;5.70;99.90;;;;;;5088590;28;20537;-83
2024/02/27 06:28:35;;;;;;;28.83;18.40;;;5.60;99.90;;;;;;5089575;28;20463;-82
2024/02/27 06:31:01;;;;;;;25.17;16.63;;;5.60;99.90;;;;;;5086465;28;20552;-82
2024/02/27 06:33:28;;;;;;;29.13;18.43;;;5.60;99.90;;;;;;5090031;28;20486;-81
2024/02/27 06:35:56;;;;;;;31.73;17.87;;;5.50;99.90;;;;;;5083241;28;20463;-83
2024/02/27 06:38:23;;;;;;;26.87;17.87;;;5.50;99.90;;;;;;5089652;28;20456;-82
2024/02/27 06:40:50;;;;;;;30.70;19.43;;;5.50;99.90;;;;;;5084927;28;20453;-81
2024/02/27 06:43:17;;;;;;;29.07;16.83;;;5.40;99.90;;;;;;5088518;28;20485;-80
2024/02/27 06:45:44;;;;;;;27.73;16.20;;;5.40;99.90;;;;;;5088596;28;20448;-81
2024/02/27 06:48:13;;;;;;;31.27;18.90;;;5.30;99.90;;;;;;5089992;28;20451;-82
2024/02/27 06:50:40;;;;;;;30.10;17.53;;;5.40;99.90;;;;;;5087111;28;20883;-83
2024/02/27 06:53:15;;;;;;;28.40;17.70;;;5.40;99.90;;;;;;5085256;28;20477;-83
2024/02/27 06:55:42;;;;;;;32.23;18.50;;;5.40;99.90;;;;;;5083069;28;20451;-82
2024/02/27 06:58:09;;;;;;;35.00;19.70;;;5.50;99.90;;;;;;5089895;28;20465;-82
2024/02/27 07:00:35;;;;;;;26.80;16.67;;;5.50;99.90;;;;;;5085603;28;20495;-82
2024/02/27 07:03:02;;;;;;;31.40;19.17;;;5.60;99.90;;;;;;5086637;28;20478;-82
2024/02/27 07:05:29;;;;;;;27.60;18.17;;;5.60;99.90;;;;;;5098112;28;20474;-83
2024/02/27 07:07:56;;;;;;;27.30;17.80;;;5.60;99.90;;;;;;5101039;28;20465;-83
2024/02/27 07:10:24;;;;;;;25.00;15.77;;;5.60;99.90;;;;;;5101935;28;20473;-81
2024/02/27 07:12:51;;;;;;;26.23;17.93;;;5.50;99.90;;;;;;5087769;28;20478;-82
2024/02/27 07:15:18;;;;;;;30.97;18.10;;;5.50;99.90;;;;;;5095850;28;20544;-83
2024/02/27 07:17:45;;;;;;;27.83;17.03;;;5.60;99.90;;;;;;5101336;28;20483;-83
2024/02/27 07:20:12;;;;;;;31.37;18.10;;;5.60;99.90;;;;;;5103066;28;21060;-84
2024/02/27 07:22:39;;;;;;;30.77;19.33;;;5.70;99.90;;;;;;5101093;28;20562;-85
2024/02/27 07:25:08;;;;;;;25.30;16.73;;;5.70;99.90;;;;;;5098708;28;20535;-83
2024/02/27 07:27:37;;;;;;;30.20;17.87;;;5.80;99.90;;;;;;5098488;27;20481;-83
2024/02/27 07:30:05;;;;;;;26.67;18.63;;;5.90;99.90;;;;;;5103238;28;20452;-84
2024/02/27 07:32:32;;;;;;;25.00;17.20;;;5.90;99.90;;;;;;5098759;28;20478;-83
2024/02/27 07:34:59;;;;;;;29.50;18.40;;;5.90;99.90;;;;;;5105204;28;20459;-83
2024/02/27 07:37:25;;;;;;;28.07;16.67;;;6.00;99.90;;;;;;5091864;28;20536;-83
2024/02/27 07:39:52;;;;;;;26.77;18.00;;;5.80;99.90;;;;;;5092798;28;20492;-83
2024/02/27 07:42:19;;;;;;;30.33;17.13;;;5.80;99.90;;;;;;5095145;28;20458;-84
2024/02/27 07:44:47;;;;;;;25.83;16.20;;;5.80;99.90;;;;;;5091049;28;20851;-82
2024/02/27 07:47:14;;;;;;;27.63;17.83;;;5.80;99.90;;;;;;5095386;28;20456;-82
2024/02/27 07:49:45;;;;;;;30.83;17.50;;;5.70;99.90;;;;;;5091024;28;20533;-83
2024/02/27 07:52:11;;;;;;;28.43;17.10;;;5.70;99.90;;;;;;5088681;28;20453;-83
2024/02/27 07:54:39;;;;;;;27.67;17.20;;;5.60;99.90;;;;;;5093616;28;20454;-81
2024/02/27 07:57:06;;;;;;;29.00;17.70;;;5.80;99.90;;;;;;5094268;28;20454;-81
2024/02/27 07:59:33;;;;;;;26.30;15.50;;;5.80;99.90;;;;;;5095767;28;20484;-82
2024/02/27 08:02:01;;;;;;;26.90;17.00;;;5.70;99.90;;;;;;5093488;28;20951;-82
2024/02/27 08:04:28;;;;;;;29.10;18.40;;;5.70;99.90;;;;;;5096783;28;20473;-83
2024/02/27 08:06:55;;;;;;;31.23;19.03;;;5.60;99.90;;;;;;5094551;28;20460;-83
2024/02/27 08:09:22;;;;;;;26.27;17.50;;;5.50;99.90;;;;;;5085754;28;20465;-80
2024/02/27 08:11:49;;;;;;;28.57;18.57;;;5.50;99.90;;;;;;5090101;28;20535;-83
2024/02/27 08:14:17;;;;;;;28.40;18.07;;;5.50;99.90;;;;;;5097229;28;21320;-83
2024/02/27 08:16:44;;;;;;;26.87;16.20;;;5.50;99.90;;;;;;5095092;28;20455;-84
2024/02/27 08:19:12;;;;;;;30.63;17.23;;;5.60;99.90;;;;;;5100055;28;20491;-83
2024/02/27 08:21:39;;;;;;;31.00;17.30;;;5.60;99.90;;;;;;5099910;28;20529;-83
2024/02/27 08:24:08;;;;;;;32.47;17.83;;;5.50;99.90;;;;;;5099959;28;20833;-83
2024/02/27 08:26:35;;;;;;;32.27;18.47;;;5.50;99.90;;;;;;5099717;28;20458;-82
2024/02/27 08:29:02;;;;;;;33.23;18.90;;;5.60;99.90;;;;;;5096533;28;20451;-81
2024/02/27 08:31:29;;;;;;;32.90;19.77;;;5.60;99.90;;;;;;5097612;28;20828;-81
2024/02/27 08:33:56;;;;;;;29.33;19.80;;;5.60;99.90;;;;;;5099092;28;20470;-83
2024/02/27 08:36:24;;;;;;;27.77;16.47;;;5.60;99.90;;;;;;5089025;28;20466;-85
2024/02/27 08:38:51;;;;;;;31.07;20.60;;;5.60;99.90;;;;;;5091797;28;20540;-83
2024/02/27 08:41:20;;;;;;;34.23;20.10;;;5.60;99.90;;;;;;5098928;28;20949;-82
2024/02/27 08:43:47;;;;;;;35.43;21.40;;;5.70;99.90;;;;;;5081891;28;21072;-84
2024/02/27 08:46:17;;;;;;;35.07;20.60;;;5.60;99.90;;;;;;5082697;28;20529;-83
2024/02/27 08:48:44;;;;;;;34.73;20.87;;;5.70;99.90;;;;;;5091995;28;20494;-83
2024/02/27 08:51:11;;;;;;;42.80;22.87;;;5.60;99.90;;;;;;5100368;28;21023;-81
2024/02/27 08:53:39;;;;;;;40.87;21.80;;;5.60;99.90;;;;;;5103960;28;20469;-84
2024/02/27 08:56:06;;;;;;;29.33;18.57;;;5.70;99.90;;;;;;5088609;28;21281;-81
2024/02/27 08:58:34;;;;;;;37.20;19.97;;;5.80;99.90;;;;;;5087554;28;20529;-82
2024/02/27 09:01:01;;;;;;;31.67;19.07;;;5.70;99.90;;;;;;5095083;28;20511;-83
2024/02/27 09:03:28;;;;;;;28.23;18.00;;;5.80;99.90;;;;;;5091200;28;20544;-83
2024/02/27 09:05:55;;;;;;;27.00;16.47;;;5.90;99.90;;;;;;5080180;28;20463;-82
2024/02/27 09:08:22;;;;;;;26.13;16.43;;;5.80;99.90;;;;;;5097410;28;20586;-83
2024/02/27 09:10:50;;;;;;;29.50;16.93;;;6.00;99.90;;;;;;5097201;28;20450;-82
2024/02/27 09:13:17;;;;;;;27.03;16.83;;;6.10;99.90;;;;;;5099052;28;20542;-82
2024/02/27 09:15:43;;;;;;;27.07;16.67;;;6.20;99.90;;;;;;5083164;28;20533;-80
2024/02/27 09:18:10;;;;;;;26.30;17.00;;;6.30;99.90;;;;;;5100220;28;20479;-82
2024/02/27 09:20:39;;;;;;;26.90;16.63;;;6.20;99.90;;;;;;5096010;28;21021;-80
2024/02/27 09:23:06;;;;;;;27.43;17.97;;;6.20;99.90;;;;;;5096970;28;21044;-80
2024/02/27 09:25:32;;;;;;;31.67;19.87;;;6.20;99.90;;;;;;5097497;28;20525;-81
2024/02/27 09:28:01;;;;;;;33.43;18.50;;;6.30;99.90;;;;;;5093773;28;20461;-81
2024/02/27 09:30:28;;;;;;;30.67;20.13;;;6.30;99.90;;;;;;5096294;28;20912;-82
2024/02/27 09:32:54;;;;;;;25.20;17.40;;;6.40;99.90;;;;;;5096430;28;20853;-82
2024/02/27 09:35:21;;;;;;;23.70;15.30;;;6.50;99.90;;;;;;5096424;28;20446;-83
2024/02/27 09:37:48;;;;;;;23.07;15.47;;;6.50;99.90;;;;;;5083839;28;20457;-80
2024/02/27 09:40:15;;;;;;;20.97;14.97;;;6.50;99.90;;;;;;5092751;28;20486;-83
2024/02/27 09:42:42;;;;;;;22.13;16.10;;;6.50;99.90;;;;;;5086655;28;21328;-80
2024/02/27 09:45:11;;;;;;;24.50;16.27;;;6.40;99.90;;;;;;5096862;28;20474;-81
2024/02/27 09:47:39;;;;;;;27.63;17.60;;;6.40;99.90;;;;;;5084213;28;20542;-81
2024/02/27 09:50:09;;;;;;;20.90;15.13;;;6.50;99.90;;;;;;5097397;28;20443;-81
2024/02/27 09:52:37;;;;;;;27.93;17.57;;;6.40;99.90;;;;;;5096561;28;20475;-80
2024/02/27 09:55:07;;;;;;;25.00;16.43;;;6.20;99.90;;;;;;5096944;28;20456;-82
2024/02/27 09:57:34;;;;;;;24.03;15.47;;;6.20;99.90;;;;;;5087367;28;20476;-80
2024/02/27 10:00:02;;;;;;;26.53;16.60;;;6.20;99.90;;;;;;5096561;28;21075;-80
2024/02/27 10:02:30;;;;;;;25.80;16.63;;;6.00;99.90;;;;;;5085814;28;20480;-81
2024/02/27 10:04:58;;;;;;;24.90;15.80;;;6.10;99.90;;;;;;5077313;28;20844;-80
2024/02/27 10:07:27;;;;;;;25.77;16.03;;;6.10;99.90;;;;;;5086409;28;20458;-81
2024/02/27 10:09:54;;;;;;;24.50;15.57;;;5.90;99.90;;;;;;5090667;28;20447;-82
2024/02/27 10:12:21;;;;;;;27.50;17.03;;;5.90;99.90;;;;;;5076384;28;20500;-80
2024/02/27 10:14:48;;;;;;;25.40;15.40;;;5.90;99.90;;;;;;5082963;28;20455;-80
2024/02/27 10:17:15;;;;;;;28.03;15.90;;;6.00;99.90;;;;;;5085219;28;20457;-83
2024/02/27 10:19:43;;;;;;;25.00;14.87;;;5.80;99.90;;;;;;5096046;28;20525;-82
2024/02/27 10:22:12;;;;;;;25.13;16.37;;;5.60;99.90;;;;;;5095660;28;21020;-82
2024/02/27 10:24:38;;;;;;;29.23;16.47;;;5.70;99.90;;;;;;5095816;28;20468;-84
2024/02/27 10:27:07;;;;;;;26.83;18.30;;;5.80;99.90;;;;;;5091680;28;20458;-80
2024/02/27 10:29:35;;;;;;;28.33;20.00;;;6.00;99.90;;;;;;5096452;28;20514;-82
2024/02/27 10:32:02;;;;;;;25.30;17.27;;;6.20;99.90;;;;;;5089377;28;20545;-82
2024/02/27 10:34:30;;;;;;;27.70;19.60;;;6.30;99.90;;;;;;5094875;28;20489;-80
2024/02/27 10:37:02;;;;;;;32.00;19.33;;;6.40;99.90;;;;;;5086572;28;20466;-83
2024/02/27 10:39:30;;;;;;;31.63;21.33;;;6.40;99.90;;;;;;5096243;28;20476;-81
2024/02/27 10:41:57;;;;;;;29.90;19.20;;;6.50;99.90;;;;;;5097200;28;20977;-83
2024/02/27 10:44:26;;;;;;;30.17;20.90;;;6.50;99.90;;;;;;5088809;28;21013;-82
2024/02/27 10:46:55;;;;;;;29.87;21.67;;;6.60;99.90;;;;;;5089955;28;20470;-79
2024/02/27 10:49:22;;;;;;;29.50;19.50;;;6.70;99.90;;;;;;5093103;28;20454;-82
2024/02/27 10:51:49;;;;;;;29.83;20.03;;;6.70;99.90;;;;;;5089459;28;20562;-82
2024/02/27 10:54:18;;;;;;;29.00;21.17;;;6.60;99.90;;;;;;5095917;28;20484;-81
2024/02/27 10:56:46;;;;;;;31.63;21.23;;;6.60;99.90;;;;;;5088126;28;20463;-81
2024/02/27 10:59:13;;;;;;;32.57;21.20;;;6.80;99.90;;;;;;5096611;28;20490;-82
2024/02/27 11:01:42;;;;;;;32.97;22.20;;;7.00;99.90;;;;;;5097756;28;20494;-82
2024/02/27 11:04:17;;;;;;;30.13;21.20;;;7.10;99.90;;;;;;5089590;28;20962;-82
2024/02/27 11:06:47;;;;;;;37.53;24.60;;;7.10;99.90;;;;;;5086533;28;20485;-83
2024/02/27 11:09:14;;;;;;;34.47;23.33;;;7.40;99.90;;;;;;5088419;28;20529;-83
2024/02/27 11:11:46;;;;;;;35.60;24.53;;;7.80;99.90;;;;;;5088629;28;20455;-82
2024/02/27 11:14:19;;;;;;;41.40;24.20;;;8.00;99.90;;;;;;5096413;28;20504;-81
2024/02/27 11:16:50;;;;;;;29.97;21.90;;;8.10;99.90;;;;;;5094335;28;20457;-83
2024/02/27 11:19:21;;;;;;;29.63;20.77;;;8.20;99.90;;;;;;5097680;28;20528;-81
2024/02/27 11:21:49;;;;;;;32.87;23.90;;;8.30;99.90;;;;;;5083433;28;20485;-83
2024/02/27 11:24:16;;;;;;;34.80;23.07;;;8.30;99.90;;;;;;5094859;28;20485;-83
2024/02/27 11:26:45;;;;;;;28.77;21.57;;;8.20;99.90;;;;;;5088074;28;20461;-82
2024/02/27 11:29:14;;;;;;;25.43;19.53;;;8.20;99.90;;;;;;5097513;28;20556;-83
2024/02/27 11:31:42;;;;;;;27.93;20.33;;;8.60;99.90;;;;;;5099161;28;20512;-80
2024/02/27 11:34:08;;;;;;;25.47;18.73;;;9.00;99.90;;;;;;5091820;28;20910;-80
2024/02/27 11:36:35;;;;;;;29.53;20.70;;;9.40;99.90;;;;;;5090478;28;20550;-82
2024/02/27 11:39:02;;;;;;;22.63;18.57;;;9.60;99.90;;;;;;5098021;28;20477;-83
2024/02/27 11:41:28;;;;;;;18.10;14.87;;;10.30;99.90;;;;;;5088792;28;20482;-81
2024/02/27 11:43:57;;;;;;;17.90;14.23;;;11.40;99.90;;;;;;5091766;28;20546;-82
2024/02/27 11:46:36;;;;;;;16.07;12.17;;;11.80;99.90;;;;;;5077995;28;20265;-82
2024/02/27 11:49:04;;;;;;;15.90;12.03;;;12.20;99.90;;;;;;5097236;28;20461;-83
2024/02/27 11:51:33;;;;;;;18.03;12.53;;;12.20;99.90;;;;;;5089033;28;20451;-83
2024/02/27 11:54:00;;;;;;;18.10;13.23;;;11.70;99.90;;;;;;5097862;28;20556;-83
2024/02/27 11:56:28;;;;;;;14.47;11.43;;;10.80;99.90;;;;;;5079506;28;20467;-83
2024/02/27 11:58:56;;;;;;;17.30;11.93;;;10.20;99.90;;;;;;5097135;28;20550;-82
2024/02/27 12:01:23;;;;;;;17.30;13.87;;;10.30;99.90;;;;;;5087493;28;20568;-81
2024/02/27 12:03:50;;;;;;;17.20;12.77;;;10.00;99.90;;;;;;5081309;28;20478;-82
2024/02/27 12:06:17;;;;;;;16.03;12.60;;;9.90;99.90;;;;;;5097001;28;20465;-81
2024/02/27 12:08:48;;;;;;;16.83;12.00;;;9.80;99.90;;;;;;5100596;28;20454;-82
2024/02/27 12:11:16;;;;;;;18.80;12.87;;;10.00;99.90;;;;;;5100917;28;21025;-83
2024/02/27 12:13:45;;;;;;;15.40;12.03;;;10.20;99.90;;;;;;5089448;28;20852;-82
2024/02/27 12:16:22;;;;;;;16.60;11.30;;;10.20;99.90;;;;;;5096072;28;20457;-82
2024/02/27 12:18:49;;;;;;;12.87;10.47;;;10.50;99.90;;;;;;5093646;28;20460;-83
2024/02/27 12:21:27;;;;;;;14.43;10.63;;;12.60;99.90;;;;;;5092415;28;20764;-83
2024/02/27 12:24:09;;;;;;;13.93;11.47;;;15.10;99.90;;;;;;5088253;28;20528;-82
2024/02/27 12:26:36;;;;;;;16.00;12.43;;;17.10;99.90;;;;;;5098682;28;20480;-82
2024/02/27 12:29:03;;;;;;;17.60;14.97;;;19.10;97.10;;;;;;5092423;28;20460;-83
2024/02/27 12:31:32;;;;;;;16.47;14.77;;;19.60;92.50;;;;;;5097063;28;20512;-81
2024/02/27 12:33:59;;;;;;;11.53;10.33;;;19.90;90.90;;;;;;5098198;28;20468;-82
2024/02/27 12:36:26;;;;;;;10.40;9.30;;;19.10;86.80;;;;;;5109964;28;20488;-82
2024/02/27 12:38:54;;;;;;;11.23;10.03;;;18.60;87.10;;;;;;5089145;28;20449;-81
2024/02/27 12:41:21;;;;;;;12.87;11.17;;;18.60;85.70;;;;;;5096147;28;21050;-81